createdAt,value
2023-05-24T01:27:14.772Z,99289.76
2023-05-24T01:29:43.669Z,99289.23
2023-05-24T01:33:02.955Z,99286.64
2023-05-24T01:37:25.506Z,99281.30
2023-05-24T03:58:05.673Z,99251.45
2023-05-24T04:00:33.977Z,99243.98
2023-05-24T04:03:03.364Z,99239.33
2023-05-24T04:05:31.935Z,99237.00
2023-05-24T04:08:00.446Z,99233.27
2023-05-24T04:10:28.601Z,99229.67
2023-05-24T04:12:57.781Z,99224.19
2023-05-24T04:15:26.532Z,99221.75
2023-05-24T04:17:55.780Z,99215.89
2023-05-24T04:20:27.806Z,99219.80
2023-05-24T04:22:56.509Z,99219.45
2023-05-24T04:25:25.002Z,99222.70
2023-05-24T04:27:53.604Z,99229.95
2023-05-24T04:30:22.267Z,99224.35
2023-05-24T04:32:52.177Z,99223.58
2023-05-24T04:35:20.366Z,99232.73
2023-05-24T04:37:54.595Z,99237.38
2023-05-24T04:40:25.988Z,99238.09
2023-05-24T04:42:55.478Z,99240.91
2023-05-24T04:45:25.709Z,99246.58
2023-05-24T04:47:55.570Z,99253.40
2023-05-24T04:50:24.347Z,99259.25
2023-05-24T04:52:54.973Z,99272.43
2023-05-24T04:55:23.104Z,99278.09
2023-05-24T04:57:51.634Z,99279.72
2023-05-24T05:00:20.605Z,99282.26
2023-05-24T05:02:48.851Z,99284.59
2023-05-24T05:05:17.292Z,99283.95
2023-05-24T05:07:45.649Z,99283.60
2023-05-24T05:10:17.003Z,99285.95
2023-05-24T05:12:47.635Z,99293.16
2023-05-24T05:15:22.731Z,99291.09
2023-05-24T05:29:56.259Z,99321.88
2023-05-24T05:32:24.743Z,99324.70
2023-05-24T05:34:53.200Z,99328.09
2023-05-24T05:37:24.351Z,99320.98
2023-05-24T05:39:55.109Z,99327.97
2023-05-24T05:42:23.148Z,99335.13
2023-05-24T05:45:19.961Z,99344.36
2023-05-24T06:00:10.812Z,99370.41
2023-05-24T06:03:04.361Z,99378.03
2023-05-24T06:05:38.431Z,99384.75
2023-05-24T06:08:08.619Z,99388.98
2023-05-24T06:10:41.528Z,99393.98
2023-05-24T06:13:13.734Z,99396.20
2023-05-24T06:15:48.632Z,99396.27
2023-05-24T06:18:17.338Z,99392.38
2023-05-24T06:20:51.676Z,99387.33
2023-05-24T06:40:07.447Z,99423.66
2023-05-24T06:42:38.441Z,99435.52
2023-05-24T06:45:10.187Z,99438.86
2023-05-24T06:48:01.850Z,99442.77
2023-05-24T06:50:30.933Z,99443.30
2023-05-24T06:52:59.200Z,99445.18
2023-05-24T06:55:29.828Z,99447.80
2023-05-24T06:57:57.918Z,99455.23
2023-05-24T07:00:30.611Z,99467.26
2023-05-24T07:02:58.580Z,99462.95
2023-05-24T07:05:28.699Z,99467.61
2023-05-24T07:07:56.826Z,99470.62
2023-05-24T07:10:25.044Z,99477.40
2023-05-24T07:12:55.594Z,99482.49
2023-05-24T07:15:29.064Z,99472.40
2023-05-24T07:17:57.072Z,99481.44
2023-05-24T07:20:29.811Z,99486.89
2023-05-24T07:22:58.396Z,99498.15
2023-05-24T07:25:26.801Z,99503.19
2023-05-24T07:27:58.472Z,99507.86
2023-05-24T07:30:32.474Z,99519.95
2023-05-24T07:36:34.883Z,99538.13
2023-05-24T07:39:06.589Z,99541.64
2023-05-24T07:41:37.289Z,99547.21
2023-05-24T07:44:09.093Z,99547.58
2023-05-24T07:46:42.362Z,99544.57
2023-05-24T07:49:11.119Z,99551.48
2023-05-24T07:51:39.154Z,99553.69
2023-05-24T07:54:15.127Z,99553.79
2023-05-24T07:56:44.583Z,99566.31
2023-05-24T07:59:13.198Z,99574.54
2023-05-24T08:01:42.624Z,99584.77
2023-05-24T08:04:10.658Z,99581.08
2023-05-24T08:06:40.773Z,99583.75
2023-05-24T08:09:08.933Z,99586.36
2023-05-24T08:11:37.030Z,99583.41
2023-05-24T08:14:10.007Z,99579.61
2023-05-24T08:16:40.546Z,99584.99
2023-05-24T08:19:18.102Z,99591.67
2023-05-24T08:21:46.015Z,99589.98
2023-05-24T08:24:13.907Z,99587.27
2023-05-24T08:26:45.226Z,99590.58
2023-05-24T08:29:17.993Z,99590.68
2023-05-24T08:31:54.056Z,99593.67
2023-05-24T08:34:25.032Z,99598.85
2023-05-24T08:36:56.038Z,99596.35
2023-05-24T08:39:23.864Z,99594.04
2023-05-24T08:42:07.906Z,99596.18
2023-05-24T08:44:53.379Z,99601.92
2023-05-24T08:47:24.125Z,99615.20
2023-05-24T08:49:53.751Z,99626.08
2023-05-24T08:52:22.899Z,99627.97
2023-05-24T08:54:53.218Z,99629.86
2023-05-24T08:57:22.309Z,99630.40
2023-05-24T08:59:54.913Z,99626.69
2023-05-24T09:02:23.736Z,99634.19
2023-05-24T09:04:54.855Z,99637.49
2023-05-24T09:07:26.462Z,99640.21
2023-05-24T09:10:09.220Z,99645.69
2023-05-24T09:12:45.450Z,99646.13
2023-05-24T09:15:13.548Z,99649.73
2023-05-24T09:17:41.856Z,99656.50
2023-05-24T09:20:11.389Z,99655.56
2023-05-24T09:22:43.132Z,99657.92
2023-05-24T09:25:14.969Z,99667.86
2023-05-24T09:27:45.557Z,99667.13
2023-05-24T09:30:15.578Z,99661.52
2023-05-24T09:32:59.600Z,99672.70
2023-05-24T09:35:32.664Z,99686.86
2023-05-24T09:38:00.900Z,99686.34
2023-05-24T09:40:30.094Z,99679.07
2023-05-24T09:43:05.914Z,99679.06
2023-05-24T09:45:34.042Z,99689.91
2023-05-24T09:48:10.597Z,99699.05
2023-05-24T09:50:38.523Z,99699.71
2023-05-24T09:53:06.759Z,99703.13
2023-05-24T09:55:38.384Z,99703.90
2023-05-24T09:58:09.072Z,99699.90
2023-05-24T10:00:41.656Z,99705.59
2023-05-24T10:03:15.476Z,99711.30
2023-05-24T10:05:47.000Z,99713.89
2023-05-24T10:08:18.747Z,99715.38
2023-05-24T10:10:47.019Z,99722.12
2023-05-24T10:13:17.744Z,99722.05
2023-05-24T10:15:45.991Z,99727.55
2023-05-24T10:18:14.624Z,99726.09
2023-05-24T10:20:45.810Z,99730.11
2023-05-24T10:23:19.809Z,99722.05
2023-05-24T10:26:11.855Z,99736.54
2023-05-24T10:28:46.950Z,99737.45
2023-05-24T10:31:19.687Z,99740.08
2023-05-24T10:33:48.993Z,99744.06
2023-05-24T10:36:18.749Z,99752.71
2023-05-24T10:38:50.577Z,99755.96
2023-05-24T10:41:22.441Z,99763.94
2023-05-24T10:44:04.825Z,99755.58
2023-05-24T10:46:38.384Z,99766.39
2023-05-24T10:49:07.660Z,99768.34
2023-05-24T10:51:40.200Z,99771.89
2023-05-24T10:54:16.504Z,99775.02
2023-05-24T10:56:49.576Z,99772.67
2023-05-24T10:59:37.589Z,99769.62
2023-05-24T11:02:15.242Z,99772.69
2023-05-24T11:04:46.957Z,99771.66
2023-05-24T11:07:19.818Z,99783.77
2023-05-24T11:09:53.032Z,99778.45
2023-05-24T11:12:21.606Z,99773.44
2023-05-24T11:14:52.446Z,99784.92
2023-05-24T11:17:24.100Z,99755.87
2023-05-24T11:19:54.721Z,99771.45
2023-05-24T11:22:25.951Z,99753.71
2023-05-24T11:24:57.581Z,99776.02
2023-05-24T11:27:27.021Z,99796.70
2023-05-24T11:29:58.504Z,99797.29
2023-05-24T11:32:27.416Z,99759.77
2023-05-24T11:34:57.958Z,99755.05
2023-05-24T11:37:35.174Z,99755.96
2023-05-24T11:40:16.376Z,99753.75
2023-05-24T11:42:46.998Z,99763.80
2023-05-24T11:45:15.831Z,99760.88
2023-05-24T11:47:44.049Z,99769.25
2023-05-24T11:50:16.797Z,99781.87
2023-05-24T11:52:44.834Z,99782.85
2023-05-24T11:55:16.572Z,99782.20
2023-05-24T11:57:55.640Z,99787.40
2023-05-24T12:00:28.448Z,99794.34
2023-05-24T12:03:01.775Z,99797.09
2023-05-24T12:05:32.612Z,99793.23
2023-05-24T12:08:10.431Z,99795.84
2023-05-24T12:10:41.988Z,99806.79
2023-05-24T12:13:32.318Z,99805.38
2023-05-24T12:16:00.519Z,99808.01
2023-05-24T12:18:29.956Z,99817.28
2023-05-24T12:20:58.840Z,99831.07
2023-05-24T12:23:32.188Z,99832.04
2023-05-24T12:26:01.485Z,99835.89
2023-05-24T12:28:54.630Z,99837.48
2023-05-24T12:55:17.471Z,99825.16
2023-05-24T14:53:37.527Z,99834.77
2023-05-24T14:56:08.504Z,99838.05
2023-05-24T14:58:38.348Z,99832.97
2023-05-24T15:01:07.848Z,99833.73
2023-05-24T15:03:37.621Z,99841.23
2023-05-24T15:06:04.898Z,99839.47
2023-05-24T16:36:47.601Z,99895.52
2023-05-24T16:39:14.357Z,99896.23
2023-05-24T16:41:42.190Z,99902.59
2023-05-24T16:44:18.044Z,99899.61
2023-05-24T16:46:51.880Z,99900.60
2023-05-24T16:49:25.867Z,99900.33
2023-05-24T16:51:54.273Z,99899.25
2023-05-24T19:32:43.285Z,99978.39
2023-05-24T20:04:27.227Z,99973.76
2023-05-24T20:48:26.778Z,99969.05
2023-05-24T20:54:45.156Z,99965.02
2023-05-24T20:57:52.477Z,99960.96
2023-05-24T21:00:22.208Z,99962.27
2023-05-24T21:06:14.110Z,99953.56
2023-05-24T21:08:41.933Z,99950.63
2023-05-24T21:11:08.978Z,99952.73
2023-05-24T21:13:40.707Z,99949.68
2023-05-24T21:16:10.866Z,99947.99
2023-05-24T21:18:38.158Z,99948.56
2023-05-24T21:21:05.909Z,99955.07
2023-05-24T21:23:35.477Z,99959.45
2023-05-24T21:26:02.476Z,99958.80
2023-05-24T21:28:29.431Z,99962.89
2023-05-24T21:30:56.429Z,99966.65
2023-05-24T21:33:27.139Z,99969.70
2023-05-24T21:35:55.519Z,99965.52
2023-05-24T21:38:32.001Z,99961.05
2023-05-24T21:40:59.083Z,99966.77
2023-05-24T21:43:26.221Z,99968.59
2023-05-24T21:45:53.017Z,99967.81
2023-05-24T21:48:20.826Z,99972.65
2023-05-24T21:50:48.117Z,99970.38
2023-05-24T21:53:15.701Z,99975.68
2023-05-24T21:55:45.308Z,99973.14
2023-05-24T21:58:12.555Z,99978.31
2023-05-24T22:00:39.471Z,99982.98
2023-05-24T22:03:06.578Z,99982.23
2023-05-24T22:05:33.577Z,99977.60
2023-05-24T22:08:00.456Z,99979.06
2023-05-24T22:10:27.223Z,99975.30
2023-05-24T22:12:54.321Z,99964.69
2023-05-24T22:15:21.393Z,99959.70
2023-05-24T22:17:48.582Z,99962.82
2023-05-24T22:20:15.759Z,99968.48
2023-05-24T22:22:47.757Z,99971.27
2023-05-24T22:25:18.720Z,99972.80
2023-05-24T22:27:48.135Z,99971.05
2023-05-24T22:30:15.464Z,99969.84
2023-05-24T22:32:42.826Z,99969.13
2023-05-24T22:35:09.728Z,99969.09
2023-05-24T22:37:36.647Z,99966.34
2023-05-24T22:40:04.470Z,99965.48
2023-05-24T22:42:33.565Z,99971.20
2023-05-24T22:45:00.467Z,99968.86
2023-05-24T22:47:28.102Z,99969.81
2023-05-24T22:50:18.558Z,99965.15
2023-05-24T22:53:37.159Z,99969.61
2023-05-24T22:56:37.599Z,99969.79
2023-05-24T23:00:17.542Z,99974.05
2023-05-24T23:04:18.831Z,99971.40
2023-05-24T23:07:52.074Z,99966.36
2023-05-24T23:11:31.130Z,99965.71
2023-05-24T23:14:42.526Z,99961.20
2023-05-24T23:18:10.540Z,99958.71
